createdAt,value
2018-07-20T00:00:09.405Z,65.00
2018-07-20T00:00:40.520Z,65.00
2018-07-20T00:01:11.629Z,65.00
2018-07-20T00:01:42.784Z,65.00
2018-07-20T00:02:13.891Z,65.00
2018-07-20T00:02:45.005Z,65.00
2018-07-20T00:03:16.116Z,65.00
2018-07-20T00:03:47.232Z,65.00
2018-07-20T00:04:18.356Z,65.00
2018-07-20T00:04:49.465Z,65.00
2018-07-20T00:05:20.575Z,65.00
2018-07-20T00:05:51.684Z,65.00
2018-07-20T00:06:22.806Z,65.70
2018-07-20T00:06:53.940Z,65.00
2018-07-20T00:07:25.056Z,65.00
2018-07-20T00:07:56.189Z,65.00
2018-07-20T00:08:27.461Z,65.00
2018-07-20T00:08:58.571Z,65.00
2018-07-20T00:09:29.676Z,65.70
2018-07-20T00:10:00.783Z,65.00
2018-07-20T00:10:31.900Z,65.00
2018-07-20T00:11:03.031Z,65.10
2018-07-20T00:11:34.152Z,65.10
2018-07-20T00:12:05.269Z,65.10
2018-07-20T00:12:36.379Z,65.10
2018-07-20T00:13:07.490Z,65.10
2018-07-20T00:13:38.604Z,65.10
2018-07-20T00:14:09.805Z,65.10
2018-07-20T00:14:40.925Z,65.10
2018-07-20T00:15:12.045Z,65.10
2018-07-20T00:15:43.156Z,65.10
2018-07-20T00:16:14.264Z,65.20
2018-07-20T00:16:45.427Z,65.20
2018-07-20T00:17:16.527Z,65.10
2018-07-20T00:17:47.640Z,65.10
2018-07-20T00:18:18.752Z,65.20
2018-07-20T00:18:49.860Z,65.20
2018-07-20T00:19:20.972Z,65.20
2018-07-20T00:20:23.627Z,64.80
2018-07-20T00:20:54.742Z,65.20
2018-07-20T00:21:25.854Z,65.20
2018-07-20T00:21:56.996Z,65.10
2018-07-20T00:22:28.180Z,65.10
2018-07-20T00:22:59.292Z,65.10
2018-07-20T00:23:30.412Z,65.10
2018-07-20T00:24:01.529Z,65.10
2018-07-20T00:24:32.640Z,65.10
2018-07-20T00:25:03.749Z,65.10
2018-07-20T00:25:34.864Z,65.10
2018-07-20T00:26:05.982Z,65.10
2018-07-20T00:26:37.101Z,65.20
2018-07-20T00:27:08.241Z,65.10
2018-07-20T00:27:39.351Z,65.20
2018-07-20T00:28:10.473Z,65.30
2018-07-20T00:28:41.583Z,65.30
2018-07-20T00:29:12.687Z,65.30
2018-07-20T00:29:43.798Z,65.30
2018-07-20T00:30:14.968Z,65.30
2018-07-20T00:30:46.049Z,65.30
2018-07-20T00:31:48.698Z,65.40
2018-07-20T00:32:19.836Z,65.30
2018-07-20T00:32:50.953Z,65.30
2018-07-20T00:33:22.067Z,65.30
2018-07-20T00:33:53.189Z,65.30
2018-07-20T00:34:24.376Z,65.30
2018-07-20T00:34:55.496Z,65.30
2018-07-20T00:35:58.136Z,65.40
2018-07-20T00:36:29.268Z,65.30
2018-07-20T00:37:00.380Z,65.40
2018-07-20T00:37:31.512Z,65.40
2018-07-20T00:38:02.629Z,65.40
2018-07-20T00:38:33.746Z,65.40
2018-07-20T00:39:04.861Z,65.40
2018-07-20T00:39:35.980Z,65.40
2018-07-20T00:40:07.088Z,65.40
2018-07-20T00:40:38.197Z,65.40
2018-07-20T00:41:09.313Z,65.40
2018-07-20T00:41:40.431Z,65.80
2018-07-20T00:42:11.573Z,65.40
2018-07-20T00:42:42.689Z,65.40
2018-07-20T00:43:13.797Z,65.40
2018-07-20T00:43:44.904Z,65.40
2018-07-20T00:44:16.021Z,65.40
2018-07-20T00:44:47.140Z,65.40
2018-07-20T00:45:18.256Z,65.40
2018-07-20T00:45:49.364Z,65.40
2018-07-20T00:46:20.644Z,65.40
2018-07-20T00:46:51.748Z,65.40
2018-07-20T00:47:22.883Z,65.40
2018-07-20T00:47:53.992Z,65.40
2018-07-20T00:48:25.112Z,65.40
2018-07-20T00:48:56.227Z,65.40
2018-07-20T00:49:27.337Z,65.40
2018-07-20T00:49:58.453Z,65.40
2018-07-20T00:50:29.572Z,65.40
2018-07-20T00:51:00.685Z,65.50
2018-07-20T00:51:31.796Z,65.40
2018-07-20T00:52:02.903Z,65.50
2018-07-20T00:52:34.037Z,65.50
2018-07-20T00:53:05.149Z,65.40
2018-07-20T00:53:36.260Z,65.40
2018-07-20T00:54:38.919Z,65.50
2018-07-20T00:55:10.029Z,65.50
2018-07-20T00:55:41.140Z,65.50
2018-07-20T00:56:12.244Z,65.50
2018-07-20T00:56:43.367Z,65.50
2018-07-20T00:57:14.506Z,65.50
2018-07-20T00:57:45.663Z,65.50
2018-07-20T00:58:16.780Z,65.50
2018-07-20T00:58:47.888Z,65.50
2018-07-20T00:59:18.999Z,65.50
2018-07-20T01:00:21.652Z,65.60
2018-07-20T01:00:52.759Z,65.60
2018-07-20T01:01:23.867Z,65.50
2018-07-20T01:01:54.975Z,65.50
2018-07-20T01:02:26.117Z,65.50
2018-07-20T01:02:57.230Z,65.60
2018-07-20T01:03:28.335Z,65.60
2018-07-20T01:04:30.988Z,65.70
2018-07-20T01:05:02.099Z,65.60
2018-07-20T01:05:33.318Z,65.60
2018-07-20T01:06:04.336Z,65.60
2018-07-20T01:06:35.444Z,65.60
2018-07-20T01:07:06.553Z,65.60
2018-07-20T01:07:37.692Z,65.70
2018-07-20T01:08:08.801Z,65.70
2018-07-20T01:08:39.912Z,65.70
2018-07-20T01:09:11.024Z,65.70
2018-07-20T01:09:42.145Z,65.70
2018-07-20T01:10:13.266Z,65.70
2018-07-20T01:10:44.387Z,65.70
2018-07-20T01:11:15.496Z,65.70
2018-07-20T01:11:46.612Z,65.70
2018-07-20T01:12:17.723Z,65.70
2018-07-20T01:12:48.856Z,66.50
2018-07-20T01:13:19.974Z,65.70
2018-07-20T01:13:51.083Z,65.70
2018-07-20T01:14:22.201Z,65.70
2018-07-20T01:14:53.313Z,65.80
2018-07-20T01:15:24.421Z,65.80
2018-07-20T01:15:55.536Z,65.80
2018-07-20T01:16:26.651Z,65.80
2018-07-20T01:16:57.760Z,65.80
2018-07-20T01:17:28.900Z,65.80
2018-07-20T01:18:00.013Z,65.80
2018-07-20T01:18:31.124Z,65.80
2018-07-20T01:19:02.240Z,65.80
2018-07-20T01:19:33.356Z,65.80
2018-07-20T01:20:04.468Z,65.80
2018-07-20T01:20:35.576Z,65.80
2018-07-20T01:21:06.688Z,65.80
2018-07-20T01:21:37.796Z,65.80
2018-07-20T01:22:08.908Z,65.80
2018-07-20T01:22:40.044Z,65.80
2018-07-20T01:23:11.157Z,65.80
2018-07-20T01:23:42.268Z,65.80
2018-07-20T01:24:13.379Z,65.80
2018-07-20T01:24:44.496Z,65.90
2018-07-20T01:25:15.603Z,65.80
2018-07-20T01:25:46.713Z,65.80
2018-07-20T01:26:17.832Z,65.90
2018-07-20T01:26:48.948Z,65.90
2018-07-20T01:27:20.061Z,65.90
2018-07-20T01:27:51.198Z,65.90
2018-07-20T01:28:22.304Z,65.90
2018-07-20T01:28:53.421Z,66.10
2018-07-20T01:29:24.529Z,66.70
2018-07-20T01:29:55.649Z,65.90
2018-07-20T01:30:26.765Z,65.90
2018-07-20T01:30:57.877Z,66.70
2018-07-20T01:31:28.995Z,66.00
2018-07-20T01:32:00.108Z,65.90
2018-07-20T01:32:31.221Z,65.90
2018-07-20T01:33:02.362Z,65.90
2018-07-20T01:33:33.479Z,66.00
2018-07-20T01:34:04.596Z,66.00
2018-07-20T01:34:35.708Z,66.00
2018-07-20T01:35:06.828Z,66.00
2018-07-20T01:36:09.492Z,66.00
2018-07-20T01:36:40.604Z,66.00
2018-07-20T01:37:11.723Z,66.00
2018-07-20T01:37:42.865Z,66.00
2018-07-20T01:38:13.979Z,66.00
2018-07-20T01:38:45.092Z,66.00
2018-07-20T01:39:16.204Z,66.00
2018-07-20T01:39:47.313Z,66.00
2018-07-20T01:40:18.424Z,66.00
2018-07-20T01:40:49.532Z,66.00
2018-07-20T01:41:20.644Z,66.00
2018-07-20T01:41:51.759Z,66.00
2018-07-20T01:42:22.880Z,66.00
2018-07-20T01:42:54.022Z,66.00
2018-07-20T01:43:25.143Z,66.00
2018-07-20T01:43:56.249Z,66.00
2018-07-20T01:44:27.365Z,66.10
2018-07-20T01:44:58.472Z,66.10
2018-07-20T01:45:29.584Z,66.70
2018-07-20T01:46:00.692Z,66.10
2018-07-20T01:46:31.808Z,66.10
2018-07-20T01:47:02.915Z,66.10
2018-07-20T01:47:34.037Z,66.10
2018-07-20T01:48:05.192Z,67.00
2018-07-20T01:48:36.303Z,66.10
2018-07-20T01:49:07.408Z,66.10
2018-07-20T01:49:38.517Z,66.20
2018-07-20T01:50:09.631Z,66.20
2018-07-20T01:50:40.744Z,66.40
2018-07-20T01:51:11.860Z,66.40
2018-07-20T01:51:42.976Z,66.50
2018-07-20T01:52:14.085Z,66.50
2018-07-20T01:52:45.215Z,67.30
2018-07-20T01:53:16.495Z,66.50
2018-07-20T01:53:47.612Z,66.50
2018-07-20T01:54:50.264Z,66.70
2018-07-20T01:55:21.384Z,66.70
2018-07-20T01:55:52.501Z,67.10
2018-07-20T01:56:23.620Z,66.70
2018-07-20T01:56:54.728Z,66.70
2018-07-20T01:57:25.836Z,66.70
2018-07-20T01:57:56.980Z,66.70
2018-07-20T01:58:28.098Z,66.70
2018-07-20T01:58:59.212Z,67.40
2018-07-20T02:00:33.408Z,66.80
2018-07-20T02:01:04.517Z,66.70
2018-07-20T02:01:35.624Z,66.70
2018-07-20T02:02:06.727Z,66.70
2018-07-20T02:02:37.839Z,66.70
2018-07-20T02:03:08.980Z,66.80
2018-07-20T02:03:40.088Z,67.60
2018-07-20T02:04:11.196Z,66.70
2018-07-20T02:04:42.312Z,66.70
2018-07-20T02:05:13.424Z,66.70
2018-07-20T02:05:44.539Z,66.80
2018-07-20T02:06:15.652Z,66.80
2018-07-20T02:06:46.771Z,66.80
2018-07-20T02:07:17.884Z,66.80
2018-07-20T02:07:48.992Z,66.80
2018-07-20T02:08:20.128Z,66.80
2018-07-20T02:08:51.244Z,66.80
2018-07-20T02:09:22.360Z,66.80
2018-07-20T02:09:53.468Z,66.80
2018-07-20T02:10:24.581Z,66.80
2018-07-20T02:11:58.772Z,66.80
2018-07-20T02:12:29.885Z,66.80
2018-07-20T02:13:01.024Z,66.80
2018-07-20T02:13:32.132Z,66.80
2018-07-20T02:14:03.239Z,66.80
2018-07-20T02:14:34.348Z,66.80
2018-07-20T02:15:05.461Z,66.80
2018-07-20T02:15:36.576Z,66.80
2018-07-20T02:16:07.686Z,66.80
2018-07-20T02:16:38.805Z,66.80
2018-07-20T02:17:09.916Z,66.80
2018-07-20T02:17:41.024Z,66.80
2018-07-20T02:18:12.155Z,66.80
2018-07-20T02:18:43.279Z,66.90
2018-07-20T02:19:14.400Z,66.80
2018-07-20T02:19:45.512Z,66.90
2018-07-20T02:20:16.624Z,66.90
2018-07-20T02:20:47.736Z,66.80
2018-07-20T02:21:18.852Z,66.80
2018-07-20T02:21:49.965Z,66.80
2018-07-20T02:22:21.076Z,66.80
2018-07-20T02:22:52.191Z,66.80
2018-07-20T02:23:23.323Z,66.80
2018-07-20T02:23:54.436Z,66.80
2018-07-20T02:24:25.548Z,66.80
2018-07-20T02:24:56.655Z,66.80
2018-07-20T02:25:27.773Z,66.80
2018-07-20T02:25:58.881Z,66.80
2018-07-20T02:26:29.996Z,66.80
2018-07-20T02:27:01.108Z,66.80
2018-07-20T02:27:32.226Z,66.80
2018-07-20T02:28:03.337Z,66.80
2018-07-20T02:28:34.448Z,66.80
2018-07-20T02:29:05.556Z,66.80
2018-07-20T02:29:36.756Z,66.80
2018-07-20T02:30:07.792Z,66.80
2018-07-20T02:30:38.900Z,66.80
2018-07-20T02:31:10.017Z,66.80
2018-07-20T02:31:41.137Z,66.80
2018-07-20T02:32:12.254Z,66.80
2018-07-20T02:32:43.372Z,66.80
2018-07-20T02:33:14.513Z,66.80
2018-07-20T02:33:45.624Z,66.80
2018-07-20T02:34:16.733Z,66.80
2018-07-20T02:34:47.843Z,66.80
2018-07-20T02:35:18.960Z,66.80
2018-07-20T02:35:50.076Z,66.80
2018-07-20T02:36:21.191Z,66.80
2018-07-20T02:36:52.304Z,66.80
2018-07-20T02:37:23.419Z,66.80
2018-07-20T02:37:54.536Z,66.80
2018-07-20T02:38:25.645Z,66.80
2018-07-20T02:38:56.756Z,66.80
2018-07-20T02:39:27.876Z,66.80
2018-07-20T02:39:58.989Z,66.80
2018-07-20T02:40:30.101Z,66.80
2018-07-20T02:41:01.224Z,66.80
2018-07-20T02:41:32.341Z,66.80
2018-07-20T02:42:03.449Z,66.80
2018-07-20T02:42:34.565Z,66.80
2018-07-20T02:43:05.952Z,66.80
2018-07-20T02:43:37.496Z,66.90
2018-07-20T02:44:08.851Z,66.80
2018-07-20T02:44:40.013Z,66.80
2018-07-20T02:45:11.398Z,66.90
2018-07-20T02:45:42.669Z,66.80
2018-07-20T02:46:13.810Z,66.90
2018-07-20T02:46:45.200Z,66.90
2018-07-20T02:47:16.423Z,66.80
2018-07-20T02:47:47.786Z,66.80
2018-07-20T02:48:18.961Z,66.90
2018-07-20T02:48:50.264Z,66.80
2018-07-20T02:49:21.517Z,66.90
2018-07-20T02:49:52.796Z,66.90
2018-07-20T02:50:23.940Z,66.90
2018-07-20T02:50:55.394Z,66.70
2018-07-20T02:51:26.546Z,66.80
2018-07-20T02:51:57.669Z,66.90
2018-07-20T02:52:28.796Z,66.70
2018-07-20T02:52:59.933Z,66.90
2018-07-20T02:53:31.089Z,66.90
2018-07-20T02:54:02.365Z,67.70
2018-07-20T02:54:33.519Z,66.90
2018-07-20T02:55:04.657Z,66.80
2018-07-20T02:55:35.823Z,66.90
2018-07-20T02:56:06.942Z,66.80
2018-07-20T02:56:38.196Z,66.90
2018-07-20T02:57:09.324Z,66.90
2018-07-20T02:57:40.966Z,67.00
2018-07-20T02:58:12.180Z,66.90
2018-07-20T02:58:43.328Z,66.90
2018-07-20T02:59:14.484Z,67.00
2018-07-20T02:59:45.791Z,67.00
2018-07-20T03:00:17.124Z,67.00
2018-07-20T03:00:48.475Z,66.90
2018-07-20T03:01:19.654Z,67.00
2018-07-20T03:01:50.768Z,66.90
2018-07-20T03:02:21.901Z,67.00
2018-07-20T03:02:53.004Z,67.00
2018-07-20T03:03:24.156Z,67.00
2018-07-20T03:03:55.296Z,66.90
2018-07-20T03:04:26.778Z,67.00
2018-07-20T03:04:58.009Z,66.90
2018-07-20T03:05:29.482Z,67.00
2018-07-20T03:06:00.882Z,67.00
2018-07-20T03:06:32.000Z,67.00
2018-07-20T03:07:03.133Z,66.90
2018-07-20T03:07:34.403Z,67.00
2018-07-20T03:08:05.608Z,66.90
2018-07-20T03:08:36.740Z,66.90
2018-07-20T03:09:07.936Z,66.90
2018-07-20T03:09:39.236Z,66.90
2018-07-20T03:10:10.608Z,66.90
2018-07-20T03:10:41.732Z,66.90
2018-07-20T03:11:12.985Z,67.60
2018-07-20T03:11:44.123Z,66.90
2018-07-20T03:12:15.326Z,67.10
2018-07-20T03:12:46.450Z,67.00
2018-07-20T03:13:17.556Z,67.00
2018-07-20T03:13:48.695Z,67.00
2018-07-20T03:14:19.807Z,67.10
2018-07-20T03:14:50.925Z,67.00
2018-07-20T03:15:22.038Z,67.00
2018-07-20T03:15:53.371Z,67.00
2018-07-20T03:16:24.502Z,67.00
2018-07-20T03:16:55.625Z,67.00
2018-07-20T03:17:26.744Z,67.00
2018-07-20T03:17:57.864Z,67.00
2018-07-20T03:18:29.013Z,67.00
2018-07-20T03:19:00.153Z,67.00
2018-07-20T03:19:31.481Z,67.00
2018-07-20T03:20:02.612Z,67.00
2018-07-20T03:20:33.843Z,67.00
2018-07-20T03:21:05.095Z,67.00
2018-07-20T03:21:36.315Z,67.10
2018-07-20T03:22:07.539Z,67.00
2018-07-20T03:22:38.764Z,67.10
2018-07-20T03:23:09.900Z,67.00
2018-07-20T03:23:41.239Z,67.00
2018-07-20T03:24:12.551Z,67.00
2018-07-20T03:24:43.717Z,67.00
2018-07-20T03:25:14.828Z,67.00
2018-07-20T03:25:46.044Z,67.00
2018-07-20T03:26:17.197Z,67.00
2018-07-20T03:26:48.346Z,67.00
2018-07-20T03:27:19.511Z,66.90
2018-07-20T03:27:50.785Z,66.90
2018-07-20T03:28:22.322Z,66.90
2018-07-20T03:28:53.760Z,67.00
2018-07-20T03:29:25.049Z,66.90
2018-07-20T03:29:56.164Z,66.90
2018-07-20T03:30:27.280Z,66.90
2018-07-20T03:30:58.405Z,66.90
2018-07-20T03:31:29.513Z,66.90
2018-07-20T03:32:00.626Z,66.90
2018-07-20T03:32:31.749Z,66.90
2018-07-20T03:33:02.861Z,66.90
2018-07-20T03:33:33.968Z,67.00
2018-07-20T03:34:05.114Z,66.90
2018-07-20T03:34:36.223Z,66.90
2018-07-20T03:35:07.340Z,66.90
2018-07-20T03:35:38.447Z,66.90
2018-07-20T03:36:09.564Z,66.90
2018-07-20T03:36:40.683Z,66.90
2018-07-20T03:37:11.791Z,67.70
2018-07-20T03:37:42.901Z,67.00
2018-07-20T03:38:14.020Z,66.90
2018-07-20T03:38:45.171Z,67.00
2018-07-20T03:39:16.275Z,67.00
2018-07-20T03:39:47.392Z,67.00
2018-07-20T03:40:18.601Z,66.90
2018-07-20T03:41:21.256Z,67.00
2018-07-20T03:41:52.372Z,67.00
2018-07-20T03:42:23.485Z,67.00
2018-07-20T03:42:54.607Z,67.00
2018-07-20T03:43:25.721Z,67.00
2018-07-20T03:43:56.860Z,67.00
2018-07-20T03:44:27.974Z,67.00
2018-07-20T03:44:59.097Z,67.00
2018-07-20T03:45:30.209Z,67.00
2018-07-20T03:46:01.348Z,67.00
2018-07-20T03:46:32.468Z,67.00
2018-07-20T03:47:03.582Z,67.00
2018-07-20T03:47:34.696Z,67.00
2018-07-20T03:48:05.803Z,67.00
2018-07-20T03:48:36.921Z,67.00
2018-07-20T03:49:08.142Z,67.00
2018-07-20T03:49:39.192Z,67.10
2018-07-20T03:50:10.313Z,67.00
2018-07-20T03:50:41.436Z,67.00
2018-07-20T03:51:12.652Z,67.00
2018-07-20T03:51:43.763Z,67.00
2018-07-20T03:52:14.921Z,67.00
2018-07-20T03:52:46.010Z,67.40
2018-07-20T03:53:17.120Z,67.00
2018-07-20T03:53:48.228Z,67.10
2018-07-20T03:54:19.360Z,67.10
2018-07-20T03:54:50.476Z,67.00
2018-07-20T03:55:21.685Z,67.00
2018-07-20T03:55:52.808Z,67.00
2018-07-20T03:56:23.924Z,67.00
2018-07-20T03:56:55.584Z,67.00
2018-07-20T03:57:27.199Z,66.90
2018-07-20T03:57:58.975Z,67.70
2018-07-20T03:58:30.610Z,66.90
2018-07-20T03:59:02.458Z,67.00
2018-07-20T03:59:34.201Z,67.00
2018-07-20T04:00:05.876Z,67.00
2018-07-20T04:00:38.070Z,67.00
2018-07-20T04:01:10.149Z,67.00
2018-07-20T04:01:41.728Z,67.00
2018-07-20T04:02:14.149Z,66.90
2018-07-20T04:02:45.893Z,66.90
2018-07-20T04:03:17.434Z,67.00
2018-07-20T04:03:48.980Z,66.90
2018-07-20T04:04:20.176Z,66.90
2018-07-20T04:04:51.293Z,66.90
2018-07-20T04:05:22.463Z,66.90
2018-07-20T04:05:53.567Z,66.90
2018-07-20T04:06:24.676Z,67.00
2018-07-20T04:06:55.779Z,66.90
2018-07-20T04:07:26.890Z,66.90
2018-07-20T04:07:57.996Z,67.00
2018-07-20T04:08:29.109Z,66.90
2018-07-20T04:09:00.224Z,67.00
2018-07-20T04:09:31.360Z,67.00
2018-07-20T04:10:02.475Z,67.00
2018-07-20T04:10:33.588Z,67.00
2018-07-20T04:11:04.699Z,66.80
2018-07-20T04:11:35.812Z,66.70
2018-07-20T04:12:06.915Z,66.30
2018-07-20T04:12:38.028Z,66.00
2018-07-20T04:13:09.140Z,65.40
2018-07-20T04:13:40.252Z,65.00
2018-07-20T04:14:11.396Z,64.70
2018-07-20T04:14:42.504Z,64.70
2018-07-20T04:15:13.612Z,64.70
2018-07-20T04:16:16.280Z,64.80
2018-07-20T04:16:47.435Z,64.80
2018-07-20T04:17:18.549Z,64.80
2018-07-20T04:18:21.181Z,64.70
2018-07-20T04:18:52.287Z,64.20
2018-07-20T04:19:23.440Z,63.90
2018-07-20T04:19:54.556Z,63.60
2018-07-20T04:20:25.668Z,63.40
2018-07-20T04:20:56.780Z,64.00
2018-07-20T04:21:27.900Z,63.20
2018-07-20T04:21:59.008Z,63.10
2018-07-20T04:22:30.125Z,63.00
2018-07-20T04:23:01.235Z,63.10
2018-07-20T04:23:32.348Z,63.00
2018-07-20T04:24:03.505Z,63.00
2018-07-20T04:24:35.285Z,62.90
2018-07-20T04:25:06.716Z,62.90
2018-07-20T04:25:38.163Z,62.80
2018-07-20T04:26:09.654Z,62.70
2018-07-20T04:26:41.237Z,62.70
2018-07-20T04:27:12.469Z,62.80
2018-07-20T04:27:43.587Z,62.70
2018-07-20T04:28:15.139Z,62.60
2018-07-20T04:28:46.288Z,62.70
2018-07-20T04:29:17.444Z,62.50
2018-07-20T04:29:48.564Z,62.50
2018-07-20T04:30:20.069Z,62.50
2018-07-20T04:30:51.707Z,62.60
2018-07-20T04:31:22.877Z,62.70
2018-07-20T04:31:53.987Z,62.80
2018-07-20T04:32:25.100Z,62.80
2018-07-20T04:32:56.216Z,62.80
2018-07-20T04:33:27.336Z,62.80
2018-07-20T04:33:58.456Z,63.00
2018-07-20T04:34:29.613Z,63.10
2018-07-20T04:35:00.783Z,63.10
2018-07-20T04:35:31.904Z,63.10
2018-07-20T04:36:03.141Z,63.10
2018-07-20T04:36:34.269Z,63.10
2018-07-20T04:37:05.380Z,63.10
2018-07-20T04:37:36.498Z,63.10
2018-07-20T04:38:07.613Z,63.10
2018-07-20T04:38:38.719Z,63.10
2018-07-20T04:39:09.833Z,63.20
2018-07-20T04:39:40.979Z,63.20
2018-07-20T04:40:12.104Z,63.30
2018-07-20T04:40:43.216Z,63.50
2018-07-20T04:41:14.324Z,63.40
2018-07-20T04:41:45.432Z,63.40
2018-07-20T04:42:16.548Z,63.40
2018-07-20T04:42:47.655Z,63.40
2018-07-20T04:43:18.780Z,63.40
2018-07-20T04:43:50.271Z,64.20
2018-07-20T04:44:21.788Z,63.40
2018-07-20T04:44:53.397Z,63.40
2018-07-20T04:45:25.118Z,63.40
2018-07-20T04:45:56.825Z,63.50
2018-07-20T04:46:28.466Z,63.50
2018-07-20T04:47:00.108Z,63.70
2018-07-20T04:47:31.293Z,63.80
2018-07-20T04:48:02.400Z,63.80
2018-07-20T04:48:33.513Z,63.80
2018-07-20T04:49:04.636Z,63.90
2018-07-20T04:49:35.772Z,63.90
2018-07-20T04:50:06.889Z,64.00
2018-07-20T04:50:38.014Z,64.00
2018-07-20T04:51:09.123Z,64.00
2018-07-20T04:51:40.238Z,64.00
2018-07-20T04:52:11.357Z,64.00
2018-07-20T04:52:43.045Z,64.00
2018-07-20T04:53:14.686Z,64.00
2018-07-20T04:53:46.195Z,64.00
2018-07-20T04:54:17.765Z,64.00
2018-07-20T04:54:49.307Z,64.10
2018-07-20T04:55:21.856Z,64.10
2018-07-20T04:55:54.431Z,64.10
2018-07-20T04:56:26.175Z,64.10
2018-07-20T04:56:57.611Z,64.10
2018-07-20T04:57:29.171Z,64.10
2018-07-20T04:58:01.134Z,64.10
2018-07-20T04:58:32.268Z,64.10
2018-07-20T04:59:03.375Z,64.20
2018-07-20T04:59:34.512Z,64.20
2018-07-20T05:00:06.132Z,64.20
2018-07-20T05:00:37.670Z,64.20
2018-07-20T05:01:09.287Z,64.20
2018-07-20T05:01:40.955Z,64.20
2018-07-20T05:02:12.136Z,64.30
2018-07-20T05:02:43.251Z,64.40
2018-07-20T05:03:14.792Z,64.20
2018-07-20T05:03:46.482Z,64.30
2018-07-20T05:04:18.146Z,64.30
2018-07-20T05:04:49.976Z,64.30
2018-07-20T05:05:21.173Z,64.20
2018-07-20T05:05:52.445Z,64.20
2018-07-20T05:06:23.544Z,64.30
2018-07-20T05:06:54.656Z,64.20
2018-07-20T05:07:25.768Z,64.20
2018-07-20T05:07:56.876Z,64.20
2018-07-20T05:08:27.996Z,64.30
2018-07-20T05:08:59.108Z,64.30
2018-07-20T05:09:30.219Z,65.10
2018-07-20T05:10:01.361Z,64.40
2018-07-20T05:10:32.476Z,64.40
2018-07-20T05:11:03.592Z,64.40
2018-07-20T05:11:34.704Z,64.40
2018-07-20T05:12:05.815Z,64.40
2018-07-20T05:12:36.927Z,64.40
2018-07-20T05:13:08.036Z,64.40
2018-07-20T05:13:39.156Z,64.40
2018-07-20T05:14:10.272Z,64.50
2018-07-20T05:14:41.454Z,64.40
2018-07-20T05:15:12.576Z,64.40
2018-07-20T05:15:43.692Z,64.50
2018-07-20T05:16:14.800Z,64.50
2018-07-20T05:16:45.911Z,64.50
2018-07-20T05:17:17.024Z,64.50
2018-07-20T05:17:48.140Z,64.50
2018-07-20T05:18:19.254Z,64.50
2018-07-20T05:18:50.368Z,64.50
2018-07-20T05:19:21.478Z,64.50
2018-07-20T05:19:52.612Z,65.40
2018-07-20T05:20:23.725Z,64.50
2018-07-20T05:20:54.836Z,64.50
2018-07-20T05:21:25.944Z,64.50
2018-07-20T05:21:57.055Z,64.60
2018-07-20T05:22:28.167Z,64.60
2018-07-20T05:22:59.279Z,64.70
2018-07-20T05:23:30.400Z,64.70
2018-07-20T05:24:01.517Z,64.60
2018-07-20T05:24:32.644Z,64.70
2018-07-20T05:25:03.838Z,64.70
2018-07-20T05:25:34.957Z,64.70
2018-07-20T05:26:06.069Z,64.70
2018-07-20T05:26:37.188Z,64.70
2018-07-20T05:27:08.304Z,64.70
2018-07-20T05:27:39.492Z,64.70
2018-07-20T05:28:10.600Z,64.70
2018-07-20T05:28:42.157Z,64.80
2018-07-20T05:29:13.695Z,64.80
2018-07-20T05:29:45.440Z,64.80
2018-07-20T05:30:17.110Z,64.80
2018-07-20T05:30:49.133Z,64.80
2018-07-20T05:31:21.391Z,64.80
2018-07-20T05:31:52.561Z,64.80
2018-07-20T05:32:23.676Z,64.80
2018-07-20T05:32:54.788Z,64.80
2018-07-20T05:33:25.904Z,64.80
2018-07-20T05:34:28.552Z,64.80
2018-07-20T05:34:59.684Z,64.80
2018-07-20T05:35:30.792Z,64.80
2018-07-20T05:36:01.909Z,64.80
2018-07-20T05:36:33.024Z,64.80
2018-07-20T05:37:04.136Z,64.80
2018-07-20T05:37:35.243Z,64.80
2018-07-20T05:38:06.399Z,64.80
2018-07-20T05:38:37.495Z,64.90
2018-07-20T05:39:08.609Z,64.80
2018-07-20T05:39:39.734Z,64.20
2018-07-20T05:40:10.881Z,64.90
2018-07-20T05:40:41.988Z,64.80
2018-07-20T05:41:13.123Z,65.70
2018-07-20T05:41:44.240Z,64.90
2018-07-20T05:42:15.347Z,64.90
2018-07-20T05:42:46.460Z,64.90
2018-07-20T05:43:17.585Z,64.90
2018-07-20T05:43:48.700Z,64.90
2018-07-20T05:44:19.819Z,64.90
2018-07-20T05:44:50.933Z,64.90
2018-07-20T05:45:22.072Z,65.20
2018-07-20T05:45:53.180Z,65.00
2018-07-20T05:46:24.291Z,64.90
2018-07-20T05:46:55.404Z,65.00
2018-07-20T05:47:26.513Z,65.00
2018-07-20T05:47:57.624Z,65.00
2018-07-20T05:48:28.736Z,65.00
2018-07-20T05:48:59.852Z,65.30
2018-07-20T05:49:30.964Z,65.00
2018-07-20T05:50:02.120Z,65.00
2018-07-20T05:50:33.234Z,65.00
2018-07-20T05:51:04.344Z,65.00
2018-07-20T05:51:35.448Z,65.10
2018-07-20T05:52:06.561Z,65.10
2018-07-20T05:52:37.680Z,65.10
2018-07-20T05:53:08.787Z,65.10
2018-07-20T05:53:39.894Z,65.10
2018-07-20T05:54:11.013Z,65.10
2018-07-20T05:54:42.128Z,65.10
2018-07-20T05:55:13.266Z,65.10
2018-07-20T05:55:44.376Z,65.10
2018-07-20T05:56:15.488Z,65.20
2018-07-20T05:56:46.619Z,65.30
2018-07-20T05:57:17.724Z,65.20
2018-07-20T05:57:48.839Z,65.00
2018-07-20T05:58:19.952Z,65.20
2018-07-20T05:58:51.060Z,65.20
2018-07-20T05:59:22.168Z,65.20
2018-07-20T05:59:53.280Z,65.20
2018-07-20T06:00:24.420Z,64.60
2018-07-20T06:00:55.528Z,65.20
2018-07-20T06:01:26.641Z,65.20
2018-07-20T06:01:57.755Z,65.40
2018-07-20T06:02:28.864Z,65.50
2018-07-20T06:02:59.983Z,65.50
2018-07-20T06:03:31.100Z,65.40
2018-07-20T06:04:02.238Z,65.40
2018-07-20T06:05:04.852Z,64.70
2018-07-20T06:05:36.063Z,65.40
2018-07-20T06:06:07.183Z,65.50
2018-07-20T06:06:38.298Z,65.40
2018-07-20T06:07:09.412Z,65.40
2018-07-20T06:07:40.524Z,65.40
2018-07-20T06:08:11.648Z,65.40
2018-07-20T06:08:42.767Z,65.40
2018-07-20T06:09:13.876Z,65.40
2018-07-20T06:09:44.988Z,65.40
2018-07-20T06:10:16.125Z,65.40
2018-07-20T06:10:47.240Z,65.40
2018-07-20T06:11:18.356Z,65.40
2018-07-20T06:11:49.464Z,65.40
2018-07-20T06:12:20.572Z,65.40
2018-07-20T06:12:51.684Z,65.40
2018-07-20T06:13:22.796Z,65.40
2018-07-20T06:13:53.908Z,65.40
2018-07-20T06:14:25.024Z,65.40
2018-07-20T06:14:56.153Z,65.40
2018-07-20T06:15:27.283Z,65.40
2018-07-20T06:15:58.395Z,65.40
2018-07-20T06:16:29.528Z,65.40
2018-07-20T06:17:00.644Z,65.40
2018-07-20T06:17:31.769Z,65.40
2018-07-20T06:18:02.892Z,65.50
2018-07-20T06:18:34.005Z,65.40
2018-07-20T06:19:05.192Z,65.50
2018-07-20T06:19:36.246Z,65.50
2018-07-20T06:20:07.361Z,65.50
2018-07-20T06:20:38.500Z,65.50
2018-07-20T06:21:09.624Z,65.50
2018-07-20T06:21:40.768Z,65.50
2018-07-20T06:22:11.876Z,65.50
2018-07-20T06:22:42.992Z,65.50
2018-07-20T06:23:14.104Z,65.50
2018-07-20T06:23:45.252Z,65.50
2018-07-20T06:24:16.348Z,65.50
2018-07-20T06:24:47.465Z,65.50
2018-07-20T06:25:18.576Z,65.50
2018-07-20T06:25:49.719Z,65.50
2018-07-20T06:26:20.832Z,65.50
2018-07-20T06:26:51.945Z,65.50
2018-07-20T06:27:23.055Z,65.50
2018-07-20T06:27:54.165Z,65.50
2018-07-20T06:28:25.275Z,65.50
2018-07-20T06:28:56.388Z,65.50
2018-07-20T06:29:27.504Z,65.50
2018-07-20T06:29:58.616Z,65.50
2018-07-20T06:30:29.755Z,65.50
2018-07-20T06:31:00.879Z,65.50
2018-07-20T06:32:03.524Z,65.50
2018-07-20T06:32:34.640Z,65.50
2018-07-20T06:33:05.754Z,65.50
2018-07-20T06:33:36.872Z,65.50
2018-07-20T06:34:08.075Z,65.50
2018-07-20T06:34:39.190Z,65.50
2018-07-20T06:35:10.308Z,65.50
2018-07-20T06:35:41.451Z,65.50
2018-07-20T06:36:12.580Z,65.50
2018-07-20T06:36:43.706Z,65.50
2018-07-20T06:37:14.816Z,65.50
2018-07-20T06:37:45.933Z,65.90
2018-07-20T06:38:17.044Z,65.50
2018-07-20T06:38:48.160Z,65.50
2018-07-20T06:39:19.267Z,65.60
2018-07-20T06:39:50.432Z,65.50
2018-07-20T06:40:21.540Z,65.50
2018-07-20T06:40:52.673Z,65.60
2018-07-20T06:41:23.784Z,65.50
2018-07-20T06:41:54.891Z,65.50
2018-07-20T06:42:26.000Z,65.60
2018-07-20T06:42:57.115Z,65.50
2018-07-20T06:43:28.228Z,65.60
2018-07-20T06:43:59.348Z,65.60
2018-07-20T06:44:30.456Z,65.50
2018-07-20T06:45:01.569Z,65.60
2018-07-20T06:45:32.680Z,65.60
2018-07-20T06:46:03.816Z,65.60
2018-07-20T06:46:34.924Z,65.60
2018-07-20T06:47:06.044Z,65.50
2018-07-20T06:47:37.160Z,65.60
2018-07-20T06:48:08.272Z,65.60
2018-07-20T06:48:39.387Z,65.60
2018-07-20T06:49:42.048Z,65.60
2018-07-20T06:50:13.167Z,65.60
2018-07-20T06:50:44.304Z,65.60
2018-07-20T06:51:15.440Z,65.70